Ursine, Nevada
Current Conditions -  °F | °C
As of 9:53 AM on Sunday 21 Dec 2014 (Local Time) from KELY Reporting Station
Overcast Overcast  
Wind Chill: 45°   Ceiling: 5000
Heat Index: 45°   Visibility: 10mi
Dew Point: 39°   Wind: 3mph
Humidity: 80%   Direction: 280°W
Pressure: 30.14"   Gusts: NA
Location:  38.2635°N, 114.484°W
Report Text: KELY 211753Z AUTO 28003KT 10SM OVC050 07/04 A3014 RMK AO2 SLP184 T00720039 10072 20017 50002
Loading
Personal Weather Stations






























Interactive Weather Map New forecast layout! Learn more

10-Day Weather Forecast

Advertisements
Track Severe Weather on mobile